Time;durP1;ratioP1;P1;durP2;ratioP2;P2;SDS_P1;SDS_P2;PMS_P1;PMS_P2;Temp;Humidity;BMP_temperature;BMP_pressure;BME280_temperature;BME280_humidity;BME280_pressure;Samples;Min_cycle;Max_cycle;Signal;HPM_P1;HPM_P2
2022/07/31 00:01:12;;;;;;;4.88;3.50;;;;;;;-148.14;100.00;65945.72;5053665;28;20066;-88
2022/07/31 00:03:39;;;;;;;4.20;3.85;;;;;;;-148.14;100.00;65945.72;5009467;28;20070;-88
2022/07/31 00:06:05;;;;;;;14.25;4.25;;;;;;;-148.14;100.00;65945.72;5035246;28;20474;-87
2022/07/31 00:08:30;;;;;;;4.50;4.10;;;;;;;-148.14;100.00;65945.72;5034552;28;20032;-87
2022/07/31 00:10:56;;;;;;;4.50;4.10;;;;;;;-148.14;100.00;65945.72;5028077;28;20475;-88
2022/07/31 00:13:22;;;;;;;4.85;4.18;;;;;;;-148.14;100.00;65945.72;5024380;28;20028;-88
2022/07/31 00:15:48;;;;;;;4.95;3.60;;;;;;;-148.14;100.00;65945.72;5052504;28;20032;-88
2022/07/31 00:18:13;;;;;;;4.60;4.10;;;;;;;-148.14;100.00;65945.72;5010876;28;20048;-88
2022/07/31 00:20:39;;;;;;;5.82;4.15;;;;;;;-148.14;100.00;65945.72;5029611;28;20045;-87
2022/07/31 00:23:05;;;;;;;7.25;3.83;;;;;;;-148.14;100.00;65945.72;5026378;28;20026;-88
2022/07/31 00:25:31;;;;;;;4.55;4.10;;;;;;;-148.14;100.00;65945.72;5024875;28;20065;-88
2022/07/31 00:27:57;;;;;;;5.78;4.13;;;;;;;-148.14;100.00;65945.72;5030281;28;20033;-88
2022/07/31 00:30:23;;;;;;;4.18;3.67;;;;;;;-148.14;100.00;65945.72;5036716;28;20063;-88
2022/07/31 00:32:49;;;;;;;4.18;3.78;;;;;;;-148.14;100.00;65945.72;5039907;28;20025;-88
2022/07/31 00:35:15;;;;;;;4.85;4.20;;;;;;;-148.14;100.00;65945.72;5044231;28;20059;-88
2022/07/31 00:37:41;;;;;;;5.30;3.95;;;;;;;-148.14;100.00;65945.72;5036316;28;20040;-88
2022/07/31 00:40:09;;;;;;;5.55;4.07;;;;;;;-148.14;100.00;65945.72;5035673;28;20029;-88
2022/07/31 00:42:35;;;;;;;5.05;4.22;;;;;;;-148.14;100.00;65945.72;5010916;28;20526;-88
2022/07/31 00:45:01;;;;;;;4.50;4.10;;;;;;;-148.14;100.00;65945.72;5053665;28;20036;-88
2022/07/31 00:47:26;;;;;;;4.85;4.20;;;;;;;-148.14;100.00;65945.72;5034268;28;20531;-88
2022/07/31 00:49:52;;;;;;;6.47;3.83;;;;;;;-148.14;100.00;65945.72;5053507;28;20025;-88
2022/07/31 00:52:19;;;;;;;5.00;4.50;;;;;;;-148.14;100.00;65945.72;5019227;28;20479;-88
2022/07/31 00:54:45;;;;;;;5.32;4.18;;;;;;;-148.14;100.00;65945.72;5053084;28;20029;-87
2022/07/31 00:57:11;;;;;;;4.90;4.40;;;;;;;-148.14;100.00;65945.72;5042524;28;20051;-88
2022/07/31 00:59:36;;;;;;;4.15;3.75;;;;;;;-148.14;100.00;65945.72;5051426;28;20033;-88
2022/07/31 01:02:02;;;;;;;3.80;3.40;;;;;;;-148.14;100.00;65945.72;5019425;28;20036;-88
2022/07/31 01:04:28;;;;;;;4.82;4.07;;;;;;;-148.14;100.00;65945.72;5052495;28;20029;-88
2022/07/31 01:06:54;;;;;;;4.28;3.85;;;;;;;-148.14;100.00;65945.72;5023672;28;20029;-88
2022/07/31 01:09:21;;;;;;;3.95;3.55;;;;;;;-148.14;100.00;65945.72;5020498;28;20037;-88
2022/07/31 01:11:58;;;;;;;3.65;3.15;;;;;;;-148.14;100.00;65945.72;5012216;28;20061;-88
2022/07/31 01:14:28;;;;;;;4.55;3.20;;;;;;;-148.14;100.00;65945.72;5028269;28;20116;-88
2022/07/31 01:16:57;;;;;;;3.60;3.10;;;;;;;-148.14;100.00;65945.72;5052461;28;20037;-88
2022/07/31 01:19:27;;;;;;;3.40;3.03;;;;;;;-148.14;100.00;65945.72;5035379;28;20385;-88
2022/07/31 01:22:05;;;;;;;3.25;2.95;;;;;;;-148.14;100.00;65945.72;5022863;28;20032;-87
2022/07/31 01:25:04;;;;;;;4.13;2.90;;;;;;;-148.14;100.00;65945.72;5053800;28;20040;-88
2022/07/31 01:27:54;;;;;;;3.08;2.67;;;;;;;-148.14;100.00;65945.72;5055991;28;20037;-87
2022/07/31 01:30:24;;;;;;;4.65;2.70;;;;;;;-148.14;100.00;65945.72;5055564;28;20033;-88
2022/07/31 01:32:52;;;;;;;4.88;2.72;;;;;;;-148.14;100.00;65945.72;5031654;28;20037;-87
2022/07/31 01:35:28;;;;;;;3.97;2.42;;;;;;;-148.14;100.00;65945.72;5055015;28;20021;-88
2022/07/31 01:38:09;;;;;;;3.08;2.78;;;;;;;-148.14;100.00;65945.72;5055169;28;20050;-88
2022/07/31 01:40:41;;;;;;;4.90;3.00;;;;;;;-148.14;100.00;65945.72;5029858;28;20061;-88
2022/07/31 01:43:21;;;;;;;3.00;2.70;;;;;;;-148.14;100.00;65945.72;5026358;28;20029;-88
2022/07/31 01:45:52;;;;;;;3.13;2.83;;;;;;;-148.14;100.00;65945.72;5057438;28;20067;-87
2022/07/31 01:48:19;;;;;;;2.85;2.60;;;;;;;-148.14;100.00;65945.72;5057235;28;20029;-88
2022/07/31 01:50:47;;;;;;;4.93;2.70;;;;;;;-148.14;100.00;65945.72;5022356;28;20037;-87
2022/07/31 01:53:16;;;;;;;4.40;2.83;;;;;;;-148.14;100.00;65945.72;5059248;28;20479;-88
2022/07/31 01:55:43;;;;;;;3.70;2.88;;;;;;;-148.14;100.00;65945.72;5040699;28;20072;-87
2022/07/31 01:58:11;;;;;;;5.22;3.35;;;;;;;-148.14;100.00;65945.72;5039769;28;20025;-88
2022/07/31 02:00:38;;;;;;;3.47;3.17;;;;;;;-148.14;100.00;65945.72;5023262;28;20044;-87
2022/07/31 02:03:05;;;;;;;3.50;3.13;;;;;;;-148.14;100.00;65945.72;5028444;28;20399;-88
2022/07/31 02:05:34;;;;;;;3.35;2.80;;;;;;;-148.14;100.00;65945.72;5037496;28;20029;-87
2022/07/31 02:08:03;;;;;;;3.13;2.92;;;;;;;-148.14;100.00;65945.72;5021836;28;20120;-87
2022/07/31 02:10:30;;;;;;;3.42;2.72;;;;;;;-148.14;100.00;65945.72;5026696;28;20124;-87
2022/07/31 02:12:57;;;;;;;2.67;2.47;;;;;;;-148.14;100.00;65945.72;5034850;28;20458;-87
2022/07/31 02:15:24;;;;;;;4.05;2.40;;;;;;;-148.14;100.00;65945.72;5032616;28;20032;-88
2022/07/31 02:17:53;;;;;;;3.47;2.85;;;;;;;-148.14;100.00;65945.72;5015152;28;20489;-87
2022/07/31 02:20:20;;;;;;;4.00;3.22;;;;;;;-148.14;100.00;65945.72;5029863;28;20036;-88
2022/07/31 02:22:46;;;;;;;3.33;3.03;;;;;;;-148.14;100.00;65945.72;5055208;28;20047;-88
2022/07/31 02:25:13;;;;;;;3.17;2.83;;;;;;;-148.14;100.00;65945.72;5055349;28;20025;-86
2022/07/31 02:27:40;;;;;;;4.20;3.15;;;;;;;-148.14;100.00;65945.72;5055473;28;20029;-87
2022/07/31 02:30:07;;;;;;;3.95;3.55;;;;;;;-148.14;100.00;65945.72;5056015;28;20060;-87
2022/07/31 02:32:34;;;;;;;3.88;3.17;;;;;;;-148.14;100.00;65945.72;5055544;28;20123;-87
2022/07/31 02:35:02;;;;;;;3.40;3.10;;;;;;;-148.14;100.00;65945.72;5038841;28;20029;-86
2022/07/31 02:37:30;;;;;;;4.22;2.70;;;;;;;-148.14;100.00;65945.72;5056711;28;20443;-88
2022/07/31 02:39:57;;;;;;;3.88;3.10;;;;;;;-148.14;100.00;65945.72;5057981;28;20333;-87
2022/07/31 02:42:23;;;;;;;4.15;2.85;;;;;;;-148.14;100.00;65945.72;5060128;28;20166;-88
2022/07/31 02:44:50;;;;;;;3.58;2.88;;;;;;;-148.14;100.00;65945.72;5072445;28;20032;-87
2022/07/31 02:47:16;;;;;;;4.30;2.70;;;;;;;-148.14;100.00;65945.72;5049255;28;20082;-88
2022/07/31 02:49:44;;;;;;;4.13;2.20;;;;;;;-148.14;100.00;65945.72;5072071;28;20029;-86
2022/07/31 02:52:11;;;;;;;5.15;2.60;;;;;;;-148.14;100.00;65945.72;5072386;28;20055;-87
2022/07/31 02:54:39;;;;;;;6.80;2.42;;;;;;;-148.14;100.00;65945.72;5037502;28;20034;-87
2022/07/31 02:57:06;;;;;;;2.35;2.00;;;;;;;-148.14;100.00;65945.72;5056001;28;20040;-86
2022/07/31 02:59:36;;;;;;;2.55;2.22;;;;;;;-148.14;100.00;65945.72;5023812;28;20033;-87
2022/07/31 03:02:02;;;;;;;2.35;1.67;;;;;;;-148.14;100.00;65945.72;5027280;28;20033;-87
2022/07/31 03:04:29;;;;;;;1.63;1.52;;;;;;;-148.14;100.00;65945.72;5020817;28;20140;-88
2022/07/31 03:06:54;;;;;;;1.83;1.60;;;;;;;-148.14;100.00;65945.72;5042851;28;20041;-87
2022/07/31 03:09:20;;;;;;;2.15;1.48;;;;;;;-148.14;100.00;65945.72;5057788;28;20072;-87
2022/07/31 03:11:47;;;;;;;3.33;1.50;;;;;;;-148.14;100.00;65945.72;5021372;28;20445;-87
2022/07/31 03:14:14;;;;;;;1.77;1.67;;;;;;;-148.14;100.00;65945.72;5055556;28;20025;-87
2022/07/31 03:16:41;;;;;;;1.95;1.55;;;;;;;-148.14;100.00;65945.72;5036156;28;20029;-88
2022/07/31 03:19:08;;;;;;;1.98;1.50;;;;;;;-148.14;100.00;65945.72;5053181;28;20017;-88
2022/07/31 03:21:40;;;;;;;1.33;1.23;;;;;;;-148.14;100.00;65945.72;5054018;28;20392;-87
2022/07/31 03:24:06;;;;;;;1.73;1.63;;;;;;;-148.14;100.00;65945.72;5051879;28;20040;-87
2022/07/31 03:26:31;;;;;;;2.03;1.30;;;;;;;-148.14;100.00;65945.72;5054113;28;20029;-87
2022/07/31 03:28:59;;;;;;;2.28;1.20;;;;;;;-148.14;100.00;65945.72;5027831;28;20464;-87
2022/07/31 03:31:25;;;;;;;1.55;1.10;;;;;;;-148.14;100.00;65945.72;5024204;28;20044;-87
2022/07/31 03:33:50;;;;;;;1.48;1.38;;;;;;;-148.14;100.00;65945.72;5052925;28;20538;-86
2022/07/31 03:36:16;;;;;;;1.98;1.25;;;;;;;-148.14;100.00;65945.72;5029604;28;20049;-86
2022/07/31 03:38:42;;;;;;;0.88;0.88;;;;;;;-148.14;100.00;65945.72;5026768;28;20427;-86
2022/07/31 03:41:09;;;;;;;1.67;1.15;;;;;;;-148.14;100.00;65945.72;5042875;28;20124;-86
2022/07/31 03:43:36;;;;;;;1.10;1.00;;;;;;;-148.14;100.00;65945.72;5052836;28;20039;-85
2022/07/31 03:46:02;;;;;;;1.20;1.10;;;;;;;-148.14;100.00;65945.72;5053267;28;20475;-86
2022/07/31 03:48:29;;;;;;;1.40;1.30;;;;;;;-148.14;100.00;65945.72;5050772;28;20715;-87
2022/07/31 03:50:55;;;;;;;3.03;0.90;;;;;;;-148.14;100.00;65945.72;5052613;28;20407;-87
2022/07/31 03:53:22;;;;;;;1.00;0.93;;;;;;;-148.14;100.00;65945.72;5052680;28;20040;-87
2022/07/31 03:55:48;;;;;;;0.93;0.93;;;;;;;-148.14;100.00;65945.72;5037822;28;20474;-86
2022/07/31 03:58:16;;;;;;;0.88;0.88;;;;;;;-148.14;100.00;65945.72;5052042;28;20077;-86
2022/07/31 04:00:43;;;;;;;1.60;1.08;;;;;;;-148.14;100.00;65945.72;5052951;28;20021;-85
2022/07/31 04:03:10;;;;;;;1.17;1.08;;;;;;;-148.14;100.00;65945.72;5024730;28;20069;-85
2022/07/31 04:05:37;;;;;;;1.30;1.20;;;;;;;-148.14;100.00;65945.72;5027907;28;20029;-87
2022/07/31 04:08:04;;;;;;;1.30;1.20;;;;;;;-148.14;100.00;65945.72;5051664;28;20526;-86
2022/07/31 04:10:30;;;;;;;2.08;1.17;;;;;;;-148.14;100.00;65945.72;5052785;28;20036;-87
2022/07/31 04:12:56;;;;;;;1.45;1.10;;;;;;;-148.14;100.00;65945.72;5052871;28;20033;-86
2022/07/31 04:15:22;;;;;;;1.77;1.15;;;;;;;-148.14;100.00;65945.72;5026709;28;20036;-87
2022/07/31 04:17:47;;;;;;;1.30;1.20;;;;;;;-148.14;100.00;65945.72;5022189;28;20040;-86
2022/07/31 04:20:13;;;;;;;1.33;1.00;;;;;;;-148.14;100.00;65945.72;5011570;28;20053;-87
2022/07/31 04:22:38;;;;;;;1.20;1.10;;;;;;;-148.14;100.00;65945.72;5052486;28;20029;-86
2022/07/31 04:25:04;;;;;;;1.20;1.10;;;;;;;-148.14;100.00;65945.72;5051880;28;20115;-87
2022/07/31 04:27:30;;;;;;;1.42;0.90;;;;;;;-148.14;100.00;65945.72;5047163;28;20029;-86
2022/07/31 04:29:56;;;;;;;1.65;0.90;;;;;;;-148.14;100.00;65945.72;5052674;28;20112;-87
2022/07/31 04:32:23;;;;;;;0.70;0.60;;;;;;;-148.14;100.00;65945.72;5052109;28;20049;-87
2022/07/31 04:34:49;;;;;;;0.98;0.90;;;;;;;-148.14;100.00;65945.72;5052237;28;20049;-87
2022/07/31 04:37:15;;;;;;;2.67;1.15;;;;;;;-148.14;100.00;65945.72;5039598;28;20063;-87
2022/07/31 04:39:42;;;;;;;0.77;0.77;;;;;;;-148.14;100.00;65945.72;5034643;28;20382;-87
2022/07/31 04:42:08;;;;;;;1.10;0.90;;;;;;;-148.14;100.00;65945.72;5052281;28;20078;-87
2022/07/31 04:44:34;;;;;;;1.40;1.30;;;;;;;-148.14;100.00;65945.72;5027343;28;20033;-87
2022/07/31 04:47:01;;;;;;;1.88;1.35;;;;;;;-148.14;100.00;65945.72;5052152;28;20543;-87
2022/07/31 04:49:27;;;;;;;2.83;1.30;;;;;;;-148.14;100.00;65945.72;5052493;28;20390;-87
2022/07/31 04:51:53;;;;;;;2.47;1.30;;;;;;;-148.14;100.00;65945.72;5052312;28;20021;-87
2022/07/31 04:54:19;;;;;;;3.47;1.50;;;;;;;-148.14;100.00;65945.72;5052965;28;20032;-87
2022/07/31 04:56:47;;;;;;;2.90;1.40;;;;;;;-148.14;100.00;65945.72;5052398;28;20086;-87
2022/07/31 04:59:15;;;;;;;1.67;1.30;;;;;;;-148.14;100.00;65945.72;5042288;28;20025;-87
2022/07/31 05:01:41;;;;;;;3.63;1.35;;;;;;;-148.14;100.00;65945.72;5054852;28;20025;-86
2022/07/31 05:04:08;;;;;;;2.55;1.50;;;;;;;-148.14;100.00;65945.72;5056536;28;20178;-88
2022/07/31 05:06:39;;;;;;;3.30;2.00;;;;;;;-148.14;100.00;65945.72;5056428;28;20082;-87
2022/07/31 05:09:12;;;;;;;3.50;1.40;;;;;;;-148.14;100.00;65945.72;5033369;28;20434;-87
2022/07/31 05:11:39;;;;;;;1.30;1.20;;;;;;;-148.14;100.00;65945.72;5055038;28;20056;-87
2022/07/31 05:14:07;;;;;;;1.20;1.08;;;;;;;-148.14;100.00;65945.72;5055712;28;20494;-87
2022/07/31 05:16:34;;;;;;;1.55;1.20;;;;;;;-148.14;100.00;65945.72;5057200;28;20029;-87
2022/07/31 05:19:00;;;;;;;1.52;1.35;;;;;;;-148.14;100.00;65945.72;5055834;28;20029;-88
2022/07/31 05:21:27;;;;;;;1.75;1.10;;;;;;;-148.14;100.00;65945.72;5035377;28;20475;-88
2022/07/31 05:23:54;;;;;;;1.95;1.08;;;;;;;-148.14;100.00;65945.72;5056217;28;20390;-87
2022/07/31 05:26:20;;;;;;;3.15;1.20;;;;;;;-148.14;100.00;65945.72;5055144;28;20063;-88
2022/07/31 05:28:48;;;;;;;2.55;1.02;;;;;;;-148.14;100.00;65945.72;5057123;28;20382;-88
2022/07/31 05:31:17;;;;;;;1.00;0.88;;;;;;;-148.14;100.00;65945.72;5055660;28;20095;-86
2022/07/31 05:33:43;;;;;;;2.05;1.00;;;;;;;-148.14;100.00;65945.72;5054218;28;20033;-88
2022/07/31 05:36:09;;;;;;;2.35;1.02;;;;;;;-148.14;100.00;65945.72;5031302;28;20120;-87
2022/07/31 05:38:35;;;;;;;0.90;0.90;;;;;;;-148.14;100.00;65945.72;5025258;28;20175;-88
2022/07/31 05:41:00;;;;;;;0.80;0.80;;;;;;;-148.14;100.00;65945.72;5053538;28;20033;-87
2022/07/31 05:43:26;;;;;;;0.70;0.70;;;;;;;-148.14;100.00;65945.72;5056267;28;20032;-87
2022/07/31 05:45:52;;;;;;;0.73;0.73;;;;;;;-148.14;100.00;65945.72;5055743;28;20033;-88
2022/07/31 05:48:18;;;;;;;0.80;0.80;;;;;;;-148.14;100.00;65945.72;5054287;28;20021;-88
2022/07/31 05:50:46;;;;;;;1.42;0.77;;;;;;;-148.14;100.00;65945.72;5056287;28;20475;-88
2022/07/31 05:53:15;;;;;;;0.70;0.70;;;;;;;-148.14;100.00;65945.72;5028829;28;20088;-88
2022/07/31 05:55:41;;;;;;;1.70;0.70;;;;;;;-148.14;100.00;65945.72;5019569;28;20040;-88
2022/07/31 05:58:07;;;;;;;0.60;0.50;;;;;;;-148.14;100.00;65945.72;5054302;28;20028;-88
2022/07/31 06:00:33;;;;;;;0.70;0.70;;;;;;;-148.14;100.00;65945.72;5027589;28;20029;-88
2022/07/31 06:03:00;;;;;;;1.30;0.70;;;;;;;-148.14;100.00;65945.72;5039709;28;20479;-87
2022/07/31 06:05:26;;;;;;;0.70;0.60;;;;;;;-148.14;100.00;65945.72;5056821;28;20068;-87
2022/07/31 06:07:52;;;;;;;2.35;0.60;;;;;;;-148.14;100.00;65945.72;5054870;28;20094;-87
2022/07/31 06:10:18;;;;;;;0.82;0.77;;;;;;;-148.14;100.00;65945.72;5054106;28;20037;-87
2022/07/31 06:12:44;;;;;;;0.60;0.60;;;;;;;-148.14;100.00;65945.72;5055894;28;20029;-88
2022/07/31 06:15:10;;;;;;;0.50;0.50;;;;;;;-148.14;100.00;65945.72;5037845;28;20051;-87
2022/07/31 06:17:39;;;;;;;1.83;0.70;;;;;;;-148.14;100.00;65945.72;5055281;28;20021;-88
2022/07/31 06:20:06;;;;;;;0.70;0.50;;;;;;;-148.14;100.00;65945.72;5029102;28;20394;-88
2022/07/31 06:22:32;;;;;;;2.65;0.80;;;;;;;-148.14;100.00;65945.72;5055374;28;20037;-88
2022/07/31 06:24:57;;;;;;;2.28;1.50;;;;;;;-148.14;100.00;65945.72;5055385;28;20063;-87
2022/07/31 06:27:23;;;;;;;2.53;1.95;;;;;;;-148.14;100.00;65945.72;5054716;28;20025;-87
2022/07/31 06:29:49;;;;;;;3.88;1.92;;;;;;;-148.14;100.00;65945.72;5032246;28;20033;-87
2022/07/31 06:32:15;;;;;;;5.22;4.18;;;;;;;-148.14;100.00;65945.72;5053894;28;20051;-89
2022/07/31 06:34:41;;;;;;;5.93;3.67;;;;;;;-148.14;100.00;65945.72;5030079;28;20476;-90
2022/07/31 06:37:07;;;;;;;8.15;4.10;;;;;;;-148.14;100.00;65945.72;5037841;28;20036;-88
2022/07/31 06:39:33;;;;;;;2.70;2.28;;;;;;;-148.14;100.00;65945.72;5028755;28;20040;-87
2022/07/31 06:41:59;;;;;;;1.98;1.77;;;;;;;-148.14;100.00;65945.72;5056166;28;20096;-87
2022/07/31 06:44:24;;;;;;;2.40;2.10;;;;;;;-148.14;100.00;65945.72;5054475;28;20486;-88
2022/07/31 06:46:50;;;;;;;2.63;1.67;;;;;;;-148.14;100.00;65945.72;5054882;28;20107;-86
2022/07/31 06:49:16;;;;;;;2.90;1.73;;;;;;;-148.14;100.00;65945.72;5024501;28;20032;-86
2022/07/31 06:51:42;;;;;;;1.75;1.35;;;;;;;-148.14;100.00;65945.72;5029200;28;20478;-88
2022/07/31 06:54:10;;;;;;;1.10;1.00;;;;;;;-148.14;100.00;65945.72;5052230;28;20116;-87
2022/07/31 06:56:37;;;;;;;2.10;1.48;;;;;;;-148.14;100.00;65945.72;5054740;28;20036;-87
2022/07/31 06:59:04;;;;;;;2.33;1.70;;;;;;;-148.14;100.00;65945.72;5054742;28;20505;-86
2022/07/31 07:01:30;;;;;;;2.08;1.73;;;;;;;-148.14;100.00;65945.72;5058888;28;20218;-87
2022/07/31 07:03:56;;;;;;;2.42;1.85;;;;;;;-148.14;100.00;65945.72;5054457;28;20063;-88
2022/07/31 07:06:22;;;;;;;3.60;2.67;;;;;;;-148.14;100.00;65945.72;5059606;28;20032;-88
2022/07/31 07:08:48;;;;;;;7.32;4.45;;;;;;;-148.14;100.00;65945.72;5020386;28;20051;-89
2022/07/31 07:11:14;;;;;;;8.68;4.68;;;;;;;-148.14;100.00;65945.72;5054877;28;20041;-88
2022/07/31 07:13:40;;;;;;;7.88;4.43;;;;;;;-148.14;100.00;65945.72;5054561;28;20057;-88
2022/07/31 07:16:06;;;;;;;7.38;4.47;;;;;;;-148.14;100.00;65945.72;5054706;28;20063;-88
2022/07/31 07:18:31;;;;;;;6.00;4.20;;;;;;;-148.14;100.00;65945.72;5054651;28;20056;-89
2022/07/31 07:20:57;;;;;;;4.82;3.78;;;;;;;-148.14;100.00;65945.72;5054457;28;20032;-89
2022/07/31 07:23:23;;;;;;;4.63;2.60;;;;;;;-148.14;100.00;65945.72;5029246;28;20072;-89
2022/07/31 07:25:50;;;;;;;2.17;1.95;;;;;;;-148.14;100.00;65945.72;5011073;28;20025;-88
2022/07/31 07:28:17;;;;;;;2.28;1.67;;;;;;;-148.14;100.00;65945.72;5009455;28;20029;-88
2022/07/31 07:30:43;;;;;;;1.88;1.70;;;;;;;-148.14;100.00;65945.72;5053759;28;20060;-89
2022/07/31 07:33:09;;;;;;;2.55;1.52;;;;;;;-148.14;100.00;65945.72;5007887;28;20037;-88
2022/07/31 07:35:35;;;;;;;1.30;1.20;;;;;;;-148.14;100.00;65945.72;5036561;28;20029;-88
2022/07/31 07:38:01;;;;;;;2.22;1.38;;;;;;;-148.14;100.00;65945.72;5024182;28;20511;-87
2022/07/31 07:40:30;;;;;;;2.42;1.15;;;;;;;-148.14;100.00;65945.72;5032499;28;20475;-88
2022/07/31 07:42:55;;;;;;;3.42;1.40;;;;;;;-148.14;100.00;65945.72;5055804;28;20029;-88
2022/07/31 07:45:21;;;;;;;2.00;1.58;;;;;;;-148.14;100.00;65945.72;5054983;28;20508;-87
2022/07/31 07:47:47;;;;;;;2.08;1.40;;;;;;;-148.14;100.00;65945.72;5022892;28;20025;-88
2022/07/31 07:50:14;;;;;;;2.08;1.95;;;;;;;-148.14;100.00;65945.72;5050211;28;20036;-88
2022/07/31 07:52:40;;;;;;;2.50;2.10;;;;;;;-148.14;100.00;65945.72;5053842;28;20056;-86
2022/07/31 07:55:06;;;;;;;2.67;2.13;;;;;;;-148.14;100.00;65945.72;5031880;28;20040;-88
2022/07/31 07:57:31;;;;;;;3.03;2.72;;;;;;;-148.14;100.00;65945.72;5051748;28;20033;-86
2022/07/31 08:00:03;;;;;;;2.53;2.33;;;;;;;-148.14;100.00;65945.72;5054699;28;20090;-88
2022/07/31 08:02:29;;;;;;;2.35;2.15;;;;;;;-148.14;100.00;65945.72;5052746;28;20033;-88
2022/07/31 08:04:54;;;;;;;3.53;2.20;;;;;;;-148.14;100.00;65945.72;5025732;28;20524;-87
2022/07/31 08:07:31;;;;;;;1.90;1.67;;;;;;;-148.14;100.00;65945.72;5054030;28;20040;-88
2022/07/31 08:09:58;;;;;;;1.50;1.40;;;;;;;-148.14;100.00;65945.72;5024767;28;20112;-88
2022/07/31 08:12:25;;;;;;;1.77;1.20;;;;;;;-148.14;100.00;65945.72;5018619;28;20033;-89
2022/07/31 08:14:50;;;;;;;1.60;1.40;;;;;;;-148.14;100.00;65945.72;5024334;28;20059;-89
2022/07/31 08:17:16;;;;;;;1.30;1.20;;;;;;;-148.14;100.00;65945.72;5053687;28;20052;-88
2022/07/31 08:19:42;;;;;;;1.17;1.08;;;;;;;-148.14;100.00;65945.72;5036396;28;20387;-88
2022/07/31 08:22:08;;;;;;;1.30;1.20;;;;;;;-148.14;100.00;65945.72;5029424;28;20052;-88
2022/07/31 08:24:34;;;;;;;3.20;1.90;;;;;;;-148.14;100.00;65945.72;5035643;28;20033;-89
2022/07/31 08:29:44;;;;;;;1.48;1.38;;;;;;;-148.14;100.00;65945.72;5035846;28;20052;-88
2022/07/31 08:32:10;;;;;;;1.98;1.20;;;;;;;-148.14;100.00;65945.72;5055107;28;20045;-89
2022/07/31 08:34:36;;;;;;;1.90;1.20;;;;;;;-148.14;100.00;65945.72;5053554;28;20040;-90
2022/07/31 08:37:03;;;;;;;1.73;1.20;;;;;;;-148.14;100.00;65945.72;5052130;28;20379;-88
2022/07/31 08:39:29;;;;;;;1.40;1.30;;;;;;;-148.14;100.00;65945.72;5053413;28;20025;-88
2022/07/31 08:41:55;;;;;;;1.77;1.20;;;;;;;-148.14;100.00;65945.72;5042310;28;20393;-87
2022/07/31 08:44:20;;;;;;;0.98;0.98;;;;;;;-148.14;100.00;65945.72;5050621;28;20104;-90
2022/07/31 08:46:47;;;;;;;0.98;0.98;;;;;;;-148.14;100.00;65945.72;5052157;28;20037;-89
2022/07/31 08:49:16;;;;;;;1.95;0.90;;;;;;;-148.14;100.00;65945.72;5055702;28;20048;-90
2022/07/31 08:51:43;;;;;;;0.85;0.85;;;;;;;-148.14;100.00;65945.72;5056689;28;20036;-89
2022/07/31 08:54:10;;;;;;;1.00;0.77;;;;;;;-148.14;100.00;65945.72;5055479;28;20486;-88
2022/07/31 08:56:37;;;;;;;1.85;0.63;;;;;;;-148.14;100.00;65945.72;5057275;28;20075;-89
2022/07/31 08:59:04;;;;;;;1.05;0.75;;;;;;;-148.14;100.00;65945.72;5037675;28;20029;-88
2022/07/31 09:01:33;;;;;;;0.70;0.70;;;;;;;-148.14;100.00;65945.72;5054523;28;20066;-88
2022/07/31 09:03:59;;;;;;;1.85;0.70;;;;;;;-148.14;100.00;65945.72;5058489;28;20029;-88
2022/07/31 09:06:25;;;;;;;0.60;0.60;;;;;;;-148.14;100.00;65945.72;5052959;28;20391;-88
2022/07/31 09:08:51;;;;;;;0.60;0.60;;;;;;;-148.14;100.00;65945.72;5035465;28;20033;-89
2022/07/31 09:11:17;;;;;;;0.57;0.57;;;;;;;-148.14;100.00;65945.72;5030604;28;20028;-89
2022/07/31 09:14:01;;;;;;;0.60;0.60;;;;;;;-148.14;100.00;65945.72;5053200;28;20036;-87
2022/07/31 09:16:28;;;;;;;0.60;0.60;;;;;;;-148.14;100.00;65945.72;5052774;28;21547;-88
2022/07/31 09:18:59;;;;;;;1.63;0.60;;;;;;;-148.14;100.00;65945.72;5029729;28;20064;-89
2022/07/31 09:21:25;;;;;;;0.55;0.55;;;;;;;-148.14;100.00;65945.72;5038148;28;20094;-87
2022/07/31 09:23:51;;;;;;;0.70;0.70;;;;;;;-148.14;100.00;65945.72;5054879;28;20032;-88
2022/07/31 09:26:17;;;;;;;0.63;0.63;;;;;;;-148.14;100.00;65945.72;5031749;28;20053;-88
2022/07/31 09:28:51;;;;;;;0.90;0.85;;;;;;;-148.14;100.00;65945.72;5058472;28;20368;-89
2022/07/31 09:31:17;;;;;;;2.25;0.70;;;;;;;-148.14;100.00;65945.72;5031913;28;20400;-89
2022/07/31 09:33:44;;;;;;;2.25;0.73;;;;;;;-148.14;100.00;65945.72;5031871;28;20040;-88
2022/07/31 09:36:11;;;;;;;0.60;0.60;;;;;;;-148.14;100.00;65945.72;5041081;28;20403;-89
2022/07/31 09:38:42;;;;;;;2.25;0.85;;;;;;;-148.14;100.00;65945.72;5027379;28;20037;-88
2022/07/31 09:41:11;;;;;;;0.88;0.80;;;;;;;-148.14;100.00;65945.72;5041596;28;20036;-89
2022/07/31 09:43:37;;;;;;;1.77;1.08;;;;;;;-148.14;100.00;65945.72;5037517;28;20501;-89
2022/07/31 09:46:04;;;;;;;2.08;0.98;;;;;;;-148.14;100.00;65945.72;5034595;28;20025;-88
2022/07/31 09:48:31;;;;;;;0.90;0.90;;;;;;;-148.14;100.00;65945.72;5036330;28;20025;-89
2022/07/31 09:51:04;;;;;;;1.13;1.08;;;;;;;-148.14;100.00;65945.72;5062136;28;20033;-89
2022/07/31 09:53:59;;;;;;;0.95;0.95;;;;;;;-148.14;100.00;65945.72;5040794;28;20051;-89
2022/07/31 09:56:32;;;;;;;1.73;1.30;;;;;;;-148.14;100.00;65945.72;5033448;28;20045;-89
2022/07/31 09:58:58;;;;;;;;;;;;;;;-148.14;100.00;65945.72;5027478;28;20102;-89
2022/07/31 10:01:24;;;;;;;1.10;1.00;;;;;;;-148.14;100.00;65945.72;5044653;28;19913;-89
2022/07/31 10:03:52;;;;;;;1.00;1.00;;;;;;;-148.14;100.00;65945.72;5049485;28;20445;-89
2022/07/31 10:06:19;;;;;;;1.40;0.90;;;;;;;-148.14;100.00;65945.72;5040647;28;20086;-90
2022/07/31 10:08:48;;;;;;;1.38;1.00;;;;;;;-148.14;100.00;65945.72;5038095;28;20034;-90
2022/07/31 10:11:18;;;;;;;1.20;0.98;;;;;;;-148.14;100.00;65945.72;5022432;28;20400;-89
2022/07/31 10:13:47;;;;;;;0.70;0.70;;;;;;;-148.14;100.00;65945.72;5024542;28;20040;-89
2022/07/31 10:16:14;;;;;;;0.93;0.90;;;;;;;-148.14;100.00;65945.72;5026819;28;20387;-90
2022/07/31 10:18:44;;;;;;;0.93;0.93;;;;;;;-148.14;100.00;65945.72;5030794;28;20063;-90
2022/07/31 10:21:11;;;;;;;2.40;1.00;;;;;;;-148.14;100.00;65945.72;5030943;28;20033;-89
2022/07/31 10:23:43;;;;;;;1.23;0.90;;;;;;;-148.14;100.00;65945.72;5041191;28;20402;-89
2022/07/31 10:26:13;;;;;;;1.77;0.98;;;;;;;-148.14;100.00;65945.72;5005186;28;20478;-89
2022/07/31 10:28:40;;;;;;;0.80;0.80;;;;;;;-148.14;100.00;65945.72;5056031;28;20032;-89
2022/07/31 10:31:06;;;;;;;0.80;0.80;;;;;;;-148.14;100.00;65945.72;5037082;28;20064;-89
2022/07/31 10:33:35;;;;;;;0.90;0.90;;;;;;;-148.14;100.00;65945.72;5022952;28;20514;-89
2022/07/31 10:36:21;;;;;;;2.40;1.00;;;;;;;-148.14;100.00;65945.72;5066983;28;20034;-89
2022/07/31 10:39:14;;;;;;;1.58;1.00;;;;;;;-148.14;100.00;65945.72;5046795;28;20059;-90
2022/07/31 10:42:14;;;;;;;1.00;1.00;;;;;;;-148.14;100.00;65945.72;5042091;28;20037;-90
2022/07/31 10:45:06;;;;;;;0.90;0.90;;;;;;;-148.14;100.00;65945.72;5067438;28;20037;-89
2022/07/31 10:47:32;;;;;;;1.10;1.10;;;;;;;-148.14;100.00;65945.72;5035219;28;20037;-90
2022/07/31 10:49:58;;;;;;;1.40;1.10;;;;;;;-148.14;100.00;65945.72;5021648;28;20051;-89
2022/07/31 10:52:31;;;;;;;1.33;1.23;;;;;;;-148.14;100.00;65945.72;5054863;28;20029;-89
2022/07/31 10:54:59;;;;;;;1.35;1.10;;;;;;;-148.14;100.00;65945.72;5033942;28;20041;-88
2022/07/31 10:57:34;;;;;;;2.47;1.30;;;;;;;-148.14;100.00;65945.72;5035209;28;20033;-89
2022/07/31 11:00:13;;;;;;;1.40;1.30;;;;;;;-148.14;100.00;65945.72;5067847;28;20084;-89
2022/07/31 11:02:40;;;;;;;1.40;1.30;;;;;;;-148.14;100.00;65945.72;5032556;28;20049;-89
2022/07/31 11:05:14;;;;;;;1.75;1.65;;;;;;;-148.14;100.00;65945.72;5052151;28;20097;-89
2022/07/31 11:07:45;;;;;;;1.92;1.50;;;;;;;-148.14;100.00;65945.72;5035212;28;20031;-89
2022/07/31 11:10:17;;;;;;;1.60;1.50;;;;;;;-148.14;100.00;65945.72;5049995;28;20132;-89
2022/07/31 11:12:44;;;;;;;3.45;2.08;;;;;;;-148.14;100.00;65945.72;5058986;28;20049;-89
2022/07/31 11:15:22;;;;;;;2.33;2.00;;;;;;;-148.14;100.00;65945.72;5055878;28;20056;-88